Terminal Aerodrome Forecast
Issued by NWS Quad Cities IA IL

Home | Current Version | Previous Version | Text Only | Print | Product List | Glossary On
Versions: 1 2 3 4 5 6 7 8 9 10 11 12 13 14 15 16 17
000
FTUS43 KDVN 061739
TAFDBQ
TAF
KDBQ 061739Z 0618/0718 19012KT 5SM BR VCSH BKN050
     FM062100 21013KT 3SM TSRA BR OVC025CB
     FM070100 25012KT 6SM BR VCTS OVC015CB
     FM070300 32013KT 5SM BR OVC010
     FM071400 01008KT P6SM BKN030=

USA.gov is the U.S. government's official web portal to all federal, state and local government web resources and services.